Time;durP1;ratioP1;P1;durP2;ratioP2;P2;SDS_P1;SDS_P2;PMS_P1;PMS_P2;Temp;Humidity;BMP_temperature;BMP_pressure;BME280_temperature;BME280_humidity;BME280_pressure;Samples;Min_cycle;Max_cycle;Signal;HPM_P1;HPM_P2
2022/10/11 00:00:23;;;;;;;7.60;5.47;;;;;;;15.82;nan;99988.78;4962163;28;20433;-75
2022/10/11 00:02:49;;;;;;;8.00;5.72;;;;;;;15.77;nan;99997.09;4962109;28;20453;-75
2022/10/11 00:05:15;;;;;;;6.13;4.97;;;;;;;15.74;nan;99997.31;4961091;28;20306;-75
2022/10/11 00:07:40;;;;;;;8.87;5.97;;;;;;;15.74;nan;99996.47;4960163;28;20272;-76
2022/10/11 00:10:07;;;;;;;7.80;6.10;;;;;;;15.71;nan;100000.22;4961801;28;20484;-75
2022/10/11 00:12:32;;;;;;;8.13;5.20;;;;;;;15.70;nan;100002.03;4959714;28;20195;-75
2022/10/11 00:14:58;;;;;;;7.97;5.37;;;;;;;15.73;nan;100000.94;4961993;28;20200;-75
2022/10/11 00:17:23;;;;;;;11.57;5.07;;;;;;;15.75;nan;100001.66;4962733;28;20505;-75
2022/10/11 00:19:49;;;;;;;11.37;5.87;;;;;;;15.76;nan;100000.69;4961106;28;20191;-75
2022/10/11 00:22:14;;;;;;;7.03;5.20;;;;;;;15.77;nan;100006.81;4961559;28;20897;-75
2022/10/11 00:24:40;;;;;;;5.97;5.10;;;;;;;15.78;nan;100005.88;4962694;28;20200;-75
2022/10/11 00:27:05;;;;;;;15.90;5.70;;;;;;;15.77;nan;100004.19;4961120;28;20721;-75
2022/10/11 00:29:31;;;;;;;8.10;5.30;;;;;;;15.75;nan;100006.13;4962310;28;20700;-75
2022/10/11 00:31:56;;;;;;;12.37;5.63;;;;;;;15.77;nan;100006.81;4960493;28;20216;-75
2022/10/11 00:34:22;;;;;;;9.10;5.90;;;;;;;15.78;nan;100001.41;4962003;28;20639;-75
2022/10/11 00:36:47;;;;;;;7.83;4.70;;;;;;;15.81;nan;100005.63;4961869;28;20234;-75
2022/10/11 00:39:13;;;;;;;12.63;5.60;;;;;;;15.82;nan;100002.00;4962304;28;21191;-75
2022/10/11 00:41:39;;;;;;;7.60;5.30;;;;;;;15.84;nan;100002.75;4960786;28;20204;-75
2022/10/11 00:44:19;;;;;;;8.20;5.57;;;;;;;15.84;nan;100003.56;4960148;28;20207;-75
2022/10/11 00:46:53;;;;;;;6.90;5.22;;;;;;;15.87;nan;100003.31;4961320;28;20200;-75
2022/10/11 00:49:59;;;;;;;8.13;5.88;;;;;;;15.87;nan;100005.13;4962488;28;20853;-75
2022/10/11 00:52:33;;;;;;;9.77;5.53;;;;;;;15.88;nan;100004.19;4889346;29;20310;-75
2022/10/11 00:55:06;;;;;;;7.95;6.00;;;;;;;15.87;nan;100005.13;4888908;29;20730;-75
2022/10/11 00:57:35;;;;;;;6.53;5.50;;;;;;;15.87;nan;100010.44;4930297;28;20690;-76
2022/10/11 01:00:07;;;;;;;10.25;5.38;;;;;;;15.84;nan;100008.88;4962105;28;20248;-76
2022/10/11 01:02:33;;;;;;;7.28;5.97;;;;;;;15.84;nan;100006.22;4961732;28;20196;-75
2022/10/11 01:04:59;;;;;;;13.33;6.13;;;;;;;15.87;nan;100002.50;4959774;28;20571;-75
2022/10/11 01:07:30;;;;;;;12.13;5.47;;;;;;;15.87;nan;100000.69;4961108;28;20192;-75
2022/10/11 01:09:55;;;;;;;7.25;5.13;;;;;;;15.87;nan;100005.97;4961624;28;20252;-75
2022/10/11 01:12:23;;;;;;;11.87;5.97;;;;;;;15.84;nan;100008.03;4961809;28;20235;-75
2022/10/11 01:15:07;;;;;;;6.63;4.70;;;;;;;15.83;nan;100001.06;4961127;28;20476;-75
2022/10/11 01:17:45;;;;;;;7.95;5.50;;;;;;;15.82;nan;100004.66;4960561;28;20798;-75
2022/10/11 01:20:36;;;;;;;10.85;6.88;;;;;;;15.79;nan;99994.31;4961225;28;20285;-76
2022/10/11 01:23:22;;;;;;;8.75;7.07;;;;;;;15.72;nan;99993.97;4961508;28;20180;-76
2022/10/11 01:26:22;;;;;;;8.27;5.72;;;;;;;15.71;nan;99994.91;4962350;28;20189;-75
2022/10/11 01:29:07;;;;;;;8.95;4.93;;;;;;;15.70;nan;99995.88;4963991;28;20213;-75
2022/10/11 01:31:47;;;;;;;10.70;4.93;;;;;;;15.69;nan;99991.56;4963578;28;20224;-75
2022/10/11 01:34:28;;;;;;;5.47;4.20;;;;;;;15.71;nan;99992.25;4963547;28;20659;-75
2022/10/11 01:37:04;;;;;;;6.35;4.72;;;;;;;15.74;nan;99996.47;4963408;28;20221;-75
2022/10/11 01:39:53;;;;;;;8.65;4.65;;;;;;;15.74;nan;100005.25;4965176;28;20605;-75
2022/10/11 01:42:20;;;;;;;11.95;4.05;;;;;;;15.75;nan;99998.19;4965522;28;20196;-75
2022/10/11 01:44:48;;;;;;;11.02;4.30;;;;;;;15.75;nan;99996.38;4964953;28;20236;-73
2022/10/11 01:47:19;;;;;;;10.80;5.53;;;;;;;15.77;nan;99991.81;4964457;28;20239;-73
2022/10/11 01:49:45;;;;;;;8.60;4.20;;;;;;;15.75;nan;100001.66;4965883;28;20225;-76
2022/10/11 01:52:11;;;;;;;4.82;3.63;;;;;;;15.68;nan;99992.47;4965862;28;20596;-76
2022/10/11 01:55:10;;;;;;;6.70;4.30;;;;;;;15.61;nan;99997.44;4964140;28;20236;-75
2022/10/11 01:57:54;;;;;;;6.03;4.78;;;;;;;15.56;nan;99999.59;4966260;28;20503;-75
2022/10/11 02:00:22;;;;;;;6.50;5.35;;;;;;;15.51;nan;99999.09;4966010;28;20271;-76
2022/10/11 02:03:10;;;;;;;9.60;5.25;;;;;;;15.51;nan;99998.25;4964164;28;20805;-76
2022/10/11 02:05:54;;;;;;;5.90;4.78;;;;;;;15.49;nan;99993.06;4965922;28;20212;-76
2022/10/11 02:08:36;;;;;;;7.20;4.60;;;;;;;15.49;nan;99991.25;4963378;28;20192;-75
2022/10/11 02:11:20;;;;;;;5.80;4.00;;;;;;;15.52;nan;99984.91;4962184;28;20206;-76
2022/10/11 02:14:21;;;;;;;6.85;3.88;;;;;;;15.56;nan;99983.69;4964321;28;20303;-76
2022/10/11 02:17:09;;;;;;;6.55;5.05;;;;;;;15.58;nan;99989.72;4923471;28;20210;-76
2022/10/11 02:19:39;;;;;;;7.75;4.68;;;;;;;15.57;nan;99993.31;4944047;28;20278;-76
2022/10/11 02:22:10;;;;;;;6.40;4.13;;;;;;;15.52;nan;99992.84;4964328;28;20193;-76
2022/10/11 02:24:40;;;;;;;7.63;4.70;;;;;;;15.47;nan;99995.88;4947174;28;20668;-76
2022/10/11 02:27:07;;;;;;;8.73;4.40;;;;;;;15.44;nan;99995.25;4964142;28;20192;-74
2022/10/11 02:29:36;;;;;;;8.82;4.85;;;;;;;15.44;nan;99992.59;4964121;28;20315;-74
2022/10/11 02:32:03;;;;;;;8.10;5.15;;;;;;;15.44;nan;99985.47;4964759;28;20299;-73
2022/10/11 02:34:36;;;;;;;5.25;3.88;;;;;;;15.46;nan;99986.22;4964895;28;20319;-74
2022/10/11 02:37:08;;;;;;;9.15;5.22;;;;;;;15.48;nan;99986.09;4964347;28;20199;-74
2022/10/11 02:39:50;;;;;;;6.38;4.63;;;;;;;15.49;nan;99982.50;4966071;28;20199;-73
2022/10/11 02:42:25;;;;;;;6.45;4.65;;;;;;;15.48;nan;99986.09;4966280;28;20196;-74
2022/10/11 02:44:59;;;;;;;5.40;4.25;;;;;;;15.44;nan;99993.44;4964385;28;20286;-74
2022/10/11 02:47:30;;;;;;;8.57;5.78;;;;;;;15.38;nan;99990.44;4964900;28;20188;-74
2022/10/11 02:49:58;;;;;;;13.68;5.22;;;;;;;15.35;nan;99985.38;4963580;28;20223;-73
2022/10/11 02:52:23;;;;;;;7.35;4.95;;;;;;;15.32;nan;99986.44;4963146;28;20546;-74
2022/10/11 02:54:49;;;;;;;6.50;5.60;;;;;;;15.30;nan;99983.06;4964109;28;20704;-74
2022/10/11 02:57:14;;;;;;;6.70;4.30;;;;;;;15.32;nan;99980.31;4962356;28;20231;-74
2022/10/11 02:59:39;;;;;;;6.53;4.50;;;;;;;15.33;nan;99989.94;4963684;28;20212;-74
2022/10/11 03:02:05;;;;;;;8.23;4.73;;;;;;;15.35;nan;99990.66;4963616;28;20196;-74
2022/10/11 03:04:30;;;;;;;5.60;4.13;;;;;;;15.36;nan;99989.69;4963576;28;20204;-72
2022/10/11 03:06:55;;;;;;;8.00;5.10;;;;;;;15.36;nan;99995.00;4963331;28;20653;-74
2022/10/11 03:09:21;;;;;;;8.00;5.13;;;;;;;15.33;nan;99993.41;4962056;28;20211;-73
2022/10/11 03:11:46;;;;;;;5.07;3.60;;;;;;;15.29;nan;99986.69;4962081;28;20613;-73
2022/10/11 03:14:12;;;;;;;7.60;3.80;;;;;;;15.27;nan;99989.44;4963717;28;20228;-73
2022/10/11 03:16:38;;;;;;;6.28;4.80;;;;;;;15.23;nan;99988.00;4965226;28;20262;-74
2022/10/11 03:19:03;;;;;;;8.03;4.37;;;;;;;15.21;nan;99992.56;4962745;28;20184;-73
2022/10/11 03:21:29;;;;;;;6.67;4.30;;;;;;;15.18;nan;99989.34;4964667;28;20212;-75
2022/10/11 03:23:54;;;;;;;5.30;4.80;;;;;;;15.13;nan;99983.53;4962929;28;20212;-74
2022/10/11 03:26:19;;;;;;;6.13;4.33;;;;;;;15.09;nan;99980.28;4945671;28;20526;-74
2022/10/11 03:28:45;;;;;;;5.90;5.40;;;;;;;15.01;nan;99988.81;4964027;28;20266;-74
2022/10/11 03:31:11;;;;;;;8.20;4.47;;;;;;;14.96;nan;99985.69;4963205;28;20650;-73
2022/10/11 03:33:36;;;;;;;9.97;5.10;;;;;;;14.94;nan;99992.03;4962709;28;20535;-74
2022/10/11 03:36:02;;;;;;;5.77;3.97;;;;;;;14.92;nan;100004.53;4964853;28;20487;-73
2022/10/11 03:38:27;;;;;;;5.97;4.23;;;;;;;14.87;nan;100004.03;4963630;28;20188;-73
2022/10/11 03:40:53;;;;;;;7.37;3.90;;;;;;;14.82;nan;100007.88;4964780;28;20271;-73
2022/10/11 03:43:19;;;;;;;9.53;5.20;;;;;;;14.80;nan;100007.16;4964260;28;20204;-74
2022/10/11 03:45:44;;;;;;;7.20;4.40;;;;;;;14.77;nan;100001.22;4964157;28;20210;-74
2022/10/11 03:48:10;;;;;;;5.77;4.63;;;;;;;14.72;nan;100006.88;4962713;28;20534;-74
2022/10/11 03:50:36;;;;;;;6.87;5.17;;;;;;;14.72;nan;100006.88;4964870;28;20213;-73
2022/10/11 03:53:03;;;;;;;9.53;4.80;;;;;;;14.70;nan;100011.44;4962438;28;20235;-74
2022/10/11 03:55:28;;;;;;;6.53;4.97;;;;;;;14.65;nan;100010.91;4961892;28;20985;-73
2022/10/11 03:57:54;;;;;;;7.37;5.30;;;;;;;14.62;nan;100008.50;4962759;28;20695;-74
2022/10/11 04:00:21;;;;;;;7.97;7.00;;;;;;;14.60;nan;100008.59;4962719;28;20185;-74
2022/10/11 04:02:46;;;;;;;9.05;5.53;;;;;;;14.61;nan;100014.75;4963032;28;20275;-73
2022/10/11 04:05:12;;;;;;;9.10;6.03;;;;;;;14.60;nan;100010.41;4962622;28;20283;-73
2022/10/11 04:07:38;;;;;;;7.67;5.03;;;;;;;14.60;nan;100007.78;4962949;28;20569;-74
2022/10/11 04:10:05;;;;;;;12.55;5.20;;;;;;;14.58;nan;100007.91;4940189;28;20209;-74
2022/10/11 04:12:31;;;;;;;6.60;5.13;;;;;;;14.55;nan;100007.25;4962250;28;20188;-74
2022/10/11 04:14:57;;;;;;;5.90;4.93;;;;;;;14.52;nan;100012.75;4962564;28;20208;-74
2022/10/11 04:17:22;;;;;;;5.20;4.60;;;;;;;14.50;nan;100010.22;4965502;28;20436;-74
2022/10/11 04:19:48;;;;;;;4.77;3.90;;;;;;;14.48;nan;100008.66;4961484;28;20207;-74
2022/10/11 04:22:13;;;;;;;8.37;4.30;;;;;;;14.45;nan;100014.19;4963460;28;20759;-73
2022/10/11 04:24:39;;;;;;;5.50;4.10;;;;;;;14.44;nan;100009.81;4964644;28;20220;-74
2022/10/11 04:27:05;;;;;;;6.90;3.97;;;;;;;14.43;nan;100013.44;4965321;28;20184;-74
2022/10/11 04:29:30;;;;;;;8.35;5.07;;;;;;;14.40;nan;100019.78;4964062;28;20235;-74
2022/10/11 04:31:55;;;;;;;5.27;3.83;;;;;;;14.39;nan;100018.09;4962811;28;20192;-74
2022/10/11 04:34:21;;;;;;;7.70;5.07;;;;;;;14.36;nan;100015.66;5002551;23;20357;-84
2022/10/11 04:36:46;;;;;;;5.57;3.60;;;;;;;14.36;nan;100020.94;4953275;28;20207;-82
2022/10/11 04:39:12;;;;;;;8.60;4.37;;;;;;;14.33;nan;100027.31;4961092;28;20204;-78
2022/10/11 04:41:37;;;;;;;7.47;4.60;;;;;;;14.27;nan;100021.63;4969594;28;20188;-81
2022/10/11 04:44:03;;;;;;;6.80;4.43;;;;;;;14.21;nan;100027.38;4966342;28;20195;-79
2022/10/11 04:46:28;;;;;;;5.23;3.83;;;;;;;14.17;nan;100026.72;4962098;28;20202;-80
2022/10/11 04:48:55;;;;;;;4.10;3.70;;;;;;;14.11;nan;100035.94;4958786;28;20254;-83
2022/10/11 04:51:20;;;;;;;4.38;3.20;;;;;;;14.06;nan;100032.78;4960988;28;20208;-81
2022/10/11 04:53:47;;;;;;;7.43;3.80;;;;;;;14.03;nan;100033.00;4958425;28;20453;-83
2022/10/11 04:56:15;;;;;;;6.78;5.35;;;;;;;14.01;nan;100031.41;4958943;28;20242;-78
2022/10/11 04:58:41;;;;;;;7.35;4.85;;;;;;;13.99;nan;100038.59;4958619;28;20546;-81
2022/10/11 05:01:08;;;;;;;4.93;4.37;;;;;;;13.96;nan;100034.41;4963884;28;20396;-80
2022/10/11 05:03:34;;;;;;;10.52;4.88;;;;;;;13.95;nan;100036.19;4963769;28;20435;-79
2022/10/11 05:06:03;;;;;;;5.35;3.60;;;;;;;13.94;nan;100041.59;4961691;28;20291;-78
2022/10/11 05:08:29;;;;;;;4.80;4.40;;;;;;;13.91;nan;100040.00;4965167;28;20329;-80
2022/10/11 05:10:56;;;;;;;6.90;4.90;;;;;;;13.89;nan;100043.69;4962423;28;20212;-80
2022/10/11 05:13:55;;;;;;;8.65;4.90;;;;;;;13.88;nan;100047.28;4959538;28;20760;-79
2022/10/11 05:16:21;;;;;;;8.02;4.35;;;;;;;13.83;nan;100050.25;4962235;28;20196;-81
2022/10/11 05:18:46;;;;;;;7.43;5.00;;;;;;;13.84;nan;100051.09;4963110;28;20196;-83
2022/10/11 05:21:14;;;;;;;6.60;4.50;;;;;;;13.81;nan;100046.88;4962760;28;20397;-82
2022/10/11 05:23:40;;;;;;;5.88;5.00;;;;;;;13.79;nan;100053.22;4962877;28;20554;-79
2022/10/11 05:26:05;;;;;;;7.07;5.17;;;;;;;13.78;nan;100048.91;4960223;28;20481;-80
2022/10/11 05:28:31;;;;;;;10.87;4.60;;;;;;;13.76;nan;100050.78;4962774;28;20184;-81
2022/10/11 05:30:56;;;;;;;5.20;4.67;;;;;;;13.75;nan;100052.59;4962781;28;20214;-79
2022/10/11 05:33:22;;;;;;;8.20;4.50;;;;;;;13.73;nan;100057.13;4963000;28;20189;-82
2022/10/11 05:35:48;;;;;;;6.37;4.50;;;;;;;13.70;nan;100066.09;4961867;28;20867;-79
2022/10/11 05:38:14;;;;;;;5.93;4.70;;;;;;;13.70;nan;100057.34;4962542;28;20431;-80
2022/10/11 05:40:39;;;;;;;10.80;5.57;;;;;;;13.71;nan;100064.31;4961804;28;20181;-79
2022/10/11 05:43:05;;;;;;;8.20;5.20;;;;;;;13.75;nan;100064.97;4961220;28;20299;-79
2022/10/11 05:45:33;;;;;;;8.50;5.45;;;;;;;13.78;nan;100067.38;4961087;28;20643;-78
2022/10/11 05:47:59;;;;;;;12.40;7.15;;;;;;;13.81;nan;100068.00;4959111;28;20760;-82
2022/10/11 05:50:24;;;;;;;9.60;6.20;;;;;;;13.85;nan;100077.41;4961808;28;20219;-81
2022/10/11 05:52:50;;;;;;;7.40;3.63;;;;;;;13.89;nan;100076.22;4961699;28;20192;-82
2022/10/11 05:55:15;;;;;;;5.33;4.83;;;;;;;13.92;nan;100072.53;4962840;28;20248;-80
2022/10/11 05:57:41;;;;;;;7.77;4.80;;;;;;;13.94;nan;100086.47;4961003;28;20561;-80
2022/10/11 06:00:07;;;;;;;12.10;5.83;;;;;;;13.97;nan;100082.78;4962430;28;20681;-78
2022/10/11 06:02:37;;;;;;;15.50;6.78;;;;;;;14.01;nan;100086.88;4962029;28;20198;-79
2022/10/11 06:05:03;;;;;;;7.27;6.13;;;;;;;14.03;nan;100088.47;4963260;28;20212;-81
2022/10/11 06:07:28;;;;;;;9.00;6.77;;;;;;;14.06;nan;100095.31;4962826;28;20193;-79
2022/10/11 06:09:53;;;;;;;11.30;6.00;;;;;;;14.11;nan;100091.41;4962885;28;20295;-82
2022/10/11 06:12:20;;;;;;;7.43;5.50;;;;;;;14.15;nan;100099.97;4963791;28;20195;-79
2022/10/11 06:14:46;;;;;;;7.25;4.72;;;;;;;14.12;nan;100098.41;4965546;28;20470;-81
2022/10/11 06:17:11;;;;;;;16.03;5.37;;;;;;;14.10;nan;100097.66;4961692;28;20581;-82
2022/10/11 06:19:37;;;;;;;6.90;5.40;;;;;;;14.13;nan;100104.53;4962558;28;20848;-79
2022/10/11 06:22:03;;;;;;;7.70;5.50;;;;;;;14.14;nan;100103.56;4961979;28;20657;-81
2022/10/11 06:24:29;;;;;;;8.65;6.25;;;;;;;14.18;nan;100105.03;4961440;28;20779;-80
2022/10/11 06:26:54;;;;;;;8.00;5.53;;;;;;;14.23;nan;100104.69;4965338;28;20192;-85
2022/10/11 06:29:20;;;;;;;6.10;5.43;;;;;;;14.30;nan;100106.81;4963455;28;20208;-80
2022/10/11 06:31:47;;;;;;;14.82;5.90;;;;;;;14.37;nan;100113.34;4962625;28;20918;-82
2022/10/11 06:34:12;;;;;;;10.88;7.20;;;;;;;14.43;nan;100113.88;4963940;28;20204;-79
2022/10/11 06:36:37;;;;;;;9.00;6.40;;;;;;;14.47;nan;100118.81;4963068;28;20549;-84
2022/10/11 06:39:03;;;;;;;8.30;7.03;;;;;;;14.48;nan;100114.38;4963931;28;20271;-81
2022/10/11 06:41:29;;;;;;;12.73;6.40;;;;;;;14.52;nan;100121.13;4963527;28;20716;-79
2022/10/11 06:43:55;;;;;;;7.18;6.45;;;;;;;14.56;nan;100126.13;4962476;28;20715;-83
2022/10/11 06:46:24;;;;;;;7.40;5.80;;;;;;;14.61;nan;100131.09;4962815;28;20184;-81
2022/10/11 06:48:50;;;;;;;8.25;5.53;;;;;;;14.66;nan;100128.94;4961900;28;20490;-80
2022/10/11 06:51:18;;;;;;;8.60;5.70;;;;;;;14.70;nan;100132.22;4961998;28;20283;-83
2022/10/11 06:53:51;;;;;;;9.63;5.95;;;;;;;14.74;nan;100129.25;4961942;28;20452;-81
2022/10/11 06:56:17;;;;;;;10.38;8.05;;;;;;;14.80;nan;100134.09;4963161;28;20197;-80
2022/10/11 06:58:43;;;;;;;13.43;7.38;;;;;;;14.85;nan;100132.88;4960859;28;20271;-79
2022/10/11 07:01:12;;;;;;;12.17;7.17;;;;;;;14.91;nan;100132.47;4962573;28;20720;-81
2022/10/11 07:03:38;;;;;;;9.30;7.53;;;;;;;14.96;nan;100138.22;4964422;28;20191;-80
2022/10/11 07:06:07;;;;;;;11.45;7.40;;;;;;;15.02;nan;100135.16;4962314;28;20215;-80
2022/10/11 07:08:33;;;;;;;7.05;6.15;;;;;;;15.06;nan;100139.25;4962547;28;20541;-82
2022/10/11 07:11:02;;;;;;;13.10;6.32;;;;;;;15.12;nan;100138.81;4961912;28;20223;-81
2022/10/11 07:13:31;;;;;;;8.65;6.70;;;;;;;15.18;nan;100138.34;4961495;28;20665;-80
2022/10/11 07:16:00;;;;;;;12.85;8.02;;;;;;;15.24;nan;100137.88;4963624;28;20299;-80
2022/10/11 07:18:25;;;;;;;12.88;7.10;;;;;;;15.31;nan;100130.34;4962572;28;20243;-82
2022/10/11 07:20:51;;;;;;;8.80;6.30;;;;;;;15.36;nan;100136.13;4963196;28;20211;-79
2022/10/11 07:23:16;;;;;;;10.00;7.57;;;;;;;15.42;nan;100143.63;4962177;28;20275;-83
2022/10/11 07:25:43;;;;;;;10.40;7.70;;;;;;;15.48;nan;100144.97;4963824;28;20243;-81
2022/10/11 07:28:09;;;;;;;12.02;8.18;;;;;;;15.54;nan;100143.66;4967442;28;20196;-82
2022/10/11 07:30:38;;;;;;;8.80;7.60;;;;;;;15.60;nan;100146.66;4962933;28;20616;-84
2022/10/11 07:33:03;;;;;;;13.93;8.98;;;;;;;15.67;nan;100142.59;4965123;28;20452;-81
2022/10/11 07:35:29;;;;;;;9.90;8.87;;;;;;;15.71;nan;100151.16;4967664;28;20247;-81
2022/10/11 07:37:54;;;;;;;14.33;7.50;;;;;;;15.75;nan;100143.84;4964972;28;20252;-84
2022/10/11 07:40:20;;;;;;;13.27;9.10;;;;;;;15.78;nan;100146.25;4962808;28;20189;-81
2022/10/11 07:42:45;;;;;;;13.53;9.27;;;;;;;15.80;nan;100147.84;4964219;28;20204;-83
2022/10/11 07:45:10;;;;;;;15.30;10.83;;;;;;;15.82;nan;100143.25;4964965;28;20573;-81
2022/10/11 07:47:36;;;;;;;15.30;11.50;;;;;;;15.85;nan;100142.16;4963495;28;20880;-81
2022/10/11 07:50:02;;;;;;;15.87;11.40;;;;;;;15.88;nan;100141.94;4965411;28;20224;-82
2022/10/11 07:52:27;;;;;;;17.25;12.02;;;;;;;15.92;nan;100143.38;4965199;28;20252;-81
2022/10/11 07:54:53;;;;;;;18.30;13.30;;;;;;;15.91;nan;100136.41;4965667;28;20212;-82
2022/10/11 07:57:19;;;;;;;25.47;17.20;;;;;;;15.90;nan;100142.66;4961641;28;20193;-80
2022/10/11 07:59:44;;;;;;;22.73;17.00;;;;;;;15.86;nan;100143.88;4962748;28;20271;-83
2022/10/11 08:02:11;;;;;;;21.10;12.87;;;;;;;15.87;nan;100145.53;4963216;28;20188;-80
2022/10/11 08:04:36;;;;;;;21.70;15.43;;;;;;;15.87;nan;100158.78;4961880;28;20311;-82
2022/10/11 08:07:28;;;;;;;20.17;15.87;;;;;;;15.89;nan;100155.06;4962445;28;20272;-80
2022/10/11 08:09:55;;;;;;;21.02;15.65;;;;;;;15.92;nan;100148.69;4966045;28;20236;-80
2022/10/11 08:12:41;;;;;;;22.58;14.38;;;;;;;15.94;nan;100152.06;4961868;28;20680;-82
2022/10/11 08:15:07;;;;;;;24.60;14.53;;;;;;;15.92;nan;100156.63;4960891;28;20204;-80
2022/10/11 08:17:32;;;;;;;22.73;15.03;;;;;;;15.92;nan;100157.47;4962612;28;20255;-80
2022/10/11 08:19:57;;;;;;;28.40;14.77;;;;;;;15.88;nan;100163.97;4963248;28;20196;-80
2022/10/11 08:22:23;;;;;;;23.73;16.83;;;;;;;15.83;nan;100170.59;4962281;28;20263;-80
2022/10/11 08:24:48;;;;;;;26.67;15.60;;;;;;;15.79;nan;100163.84;4963030;28;20217;-81
2022/10/11 08:27:14;;;;;;;23.70;16.57;;;;;;;15.80;nan;100170.84;4961212;28;20397;-83
2022/10/11 08:29:39;;;;;;;23.87;17.23;;;;;;;15.80;nan;100170.84;4963994;28;20311;-81
2022/10/11 08:32:05;;;;;;;28.13;21.33;;;;;;;15.78;nan;100170.94;4961771;28;20419;-80
2022/10/11 08:34:30;;;;;;;25.67;17.53;;;;;;;15.81;nan;100177.81;4961002;28;20283;-81
2022/10/11 08:36:55;;;;;;;23.33;14.20;;;;;;;15.85;nan;100171.31;4962304;28;20185;-82
2022/10/11 08:39:21;;;;;;;25.20;15.30;;;;;;;15.85;nan;100173.94;4963091;28;20196;-80
2022/10/11 08:42:05;;;;;;;19.87;14.77;;;;;;;15.84;nan;100175.75;4961697;28;20195;-81
2022/10/11 08:44:37;;;;;;;19.95;15.00;;;;;;;15.84;nan;100185.53;4964417;28;20225;-84
2022/10/11 08:47:14;;;;;;;20.42;13.60;;;;;;;15.89;nan;100183.38;4961837;28;20188;-83
2022/10/11 08:49:40;;;;;;;21.55;14.63;;;;;;;15.96;nan;100178.44;4962097;28;20598;-80
2022/10/11 08:52:14;;;;;;;19.98;15.70;;;;;;;16.05;nan;100175.91;4963397;28;20303;-81
2022/10/11 08:54:48;;;;;;;25.88;16.50;;;;;;;16.18;nan;100174.97;4963054;28;20208;-81
2022/10/11 08:57:18;;;;;;;22.10;13.75;;;;;;;16.30;nan;100171.34;4963235;28;20612;-82
2022/10/11 08:59:46;;;;;;;21.75;15.02;;;;;;;16.41;nan;100167.84;4964263;28;20184;-80
2022/10/11 09:02:33;;;;;;;19.38;14.15;;;;;;;16.57;nan;100165.69;4962278;28;20597;-81
2022/10/11 09:04:59;;;;;;;21.95;12.95;;;;;;;16.76;nan;100163.22;4963751;28;20805;-81
2022/10/11 09:07:54;;;;;;;20.70;13.23;;;;;;;17.14;nan;100171.72;4963939;28;20200;-81
2022/10/11 09:10:50;;;;;;;21.00;13.60;;;;;;;17.44;nan;100169.22;4955644;28;20221;-82
2022/10/11 09:13:42;;;;;;;18.58;13.18;;;;;;;17.57;nan;100166.34;4963967;28;20195;-80
2022/10/11 09:16:41;;;;;;;21.83;13.85;;;;;;;17.66;nan;100164.72;4962982;28;20222;-80
2022/10/11 09:19:41;;;;;;;24.45;15.32;;;;;;;17.77;nan;100167.34;4963027;28;20773;-81
2022/10/11 09:22:24;;;;;;;22.40;13.95;;;;;;;17.73;nan;100170.38;4962918;28;20191;-81
2022/10/11 09:25:06;;;;;;;23.65;16.73;;;;;;;17.67;nan;100167.25;4964265;28;20232;-80
2022/10/11 09:27:43;;;;;;;27.98;16.92;;;;;;;17.61;nan;100172.28;4964464;28;20629;-82
2022/10/11 09:30:13;;;;;;;26.90;16.83;;;;;;;17.50;nan;100164.31;4965661;28;20237;-82
2022/10/11 09:32:45;;;;;;;22.73;15.77;;;;;;;17.42;nan;100165.84;4965229;28;20193;-84
2022/10/11 09:35:14;;;;;;;25.13;19.50;;;;;;;17.30;nan;100168.66;4963586;28;20257;-84
2022/10/11 09:38:08;;;;;;;24.27;16.52;;;;;;;17.20;nan;100171.22;4965182;28;20193;-83
2022/10/11 09:40:42;;;;;;;27.77;19.15;;;;;;;17.13;nan;100165.59;4964871;28;20250;-83
2022/10/11 09:43:08;;;;;;;26.85;19.52;;;;;;;17.08;nan;100169.59;4966615;28;20226;-83
2022/10/11 09:45:33;;;;;;;24.50;18.20;;;;;;;17.06;nan;100171.50;4963949;28;20645;-83
2022/10/11 09:48:02;;;;;;;33.27;17.10;;;;;;;17.08;nan;100172.25;4968253;28;20496;-83
2022/10/11 09:50:30;;;;;;;34.60;19.15;;;;;;;17.12;nan;100171.88;4969993;28;20735;-83
2022/10/11 09:52:59;;;;;;;26.45;17.15;;;;;;;17.17;nan;100171.47;4969484;28;20253;-83
2022/10/11 09:55:39;;;;;;;27.35;18.70;;;;;;;17.18;nan;100179.31;4968186;28;20314;-85
2022/10/11 09:58:23;;;;;;;24.53;18.30;;;;;;;17.15;nan;100170.78;4968821;28;20206;-83
2022/10/11 10:01:03;;;;;;;31.50;19.70;;;;;;;17.15;nan;100176.94;4968684;28;20468;-84
2022/10/11 10:03:37;;;;;;;23.77;18.88;;;;;;;17.15;nan;100176.09;4970000;28;20210;-83
2022/10/11 10:06:14;;;;;;;33.00;19.05;;;;;;;17.15;nan;100181.41;4960841;28;20321;-84
2022/10/11 10:08:42;;;;;;;24.45;16.88;;;;;;;17.12;nan;100178.97;4960876;28;20214;-84
2022/10/11 10:11:09;;;;;;;26.33;16.08;;;;;;;17.10;nan;100178.28;4960619;28;20230;-83
2022/10/11 10:13:45;;;;;;;24.30;17.58;;;;;;;17.09;nan;100177.41;4961086;28;20209;-84
2022/10/11 10:16:26;;;;;;;23.33;17.50;;;;;;;17.10;nan;100172.97;4959205;28;20221;-83
2022/10/11 10:19:02;;;;;;;29.83;18.27;;;;;;;17.13;nan;100180.66;4958490;28;20446;-83
2022/10/11 10:21:34;;;;;;;28.77;17.87;;;;;;;17.14;nan;100185.84;4959320;28;20203;-84
2022/10/11 10:24:05;;;;;;;28.98;15.75;;;;;;;17.19;nan;100181.00;4958174;28;20565;-84
2022/10/11 10:26:31;;;;;;;24.80;16.67;;;;;;;17.18;nan;100181.97;4957632;28;20203;-83
2022/10/11 10:28:57;;;;;;;26.38;15.68;;;;;;;17.20;nan;100182.72;4960177;28;21562;-84
2022/10/11 10:31:28;;;;;;;22.63;14.97;;;;;;;17.21;nan;100181.72;4958200;28;20238;-84
2022/10/11 10:33:54;;;;;;;22.63;17.40;;;;;;;17.21;nan;100178.22;4959248;28;20480;-83
2022/10/11 10:36:30;;;;;;;21.35;15.85;;;;;;;17.21;nan;100172.91;4980688;23;21172;-76
2022/10/11 10:39:09;;;;;;;22.65;16.10;;;;;;;17.22;nan;100177.25;4949036;28;20729;-76
2022/10/11 10:41:34;;;;;;;24.80;16.20;;;;;;;17.29;nan;100178.44;4962195;28;20387;-73
2022/10/11 10:44:00;;;;;;;25.63;14.60;;;;;;;17.36;nan;100174.31;4961372;28;20454;-75
2022/10/11 10:46:51;;;;;;;20.30;13.40;;;;;;;17.39;nan;100176.72;4944725;28;20273;-76
2022/10/11 10:49:42;;;;;;;19.98;12.93;;;;;;;17.43;nan;100177.28;4939880;28;20898;-76
2022/10/11 10:52:19;;;;;;;17.30;12.90;;;;;;;17.39;nan;100174.06;4941636;28;20209;-76
2022/10/11 10:55:12;;;;;;;17.13;13.25;;;;;;;17.43;nan;100177.28;4942137;28;20439;-75
2022/10/11 10:58:15;;;;;;;16.38;12.18;;;;;;;17.51;nan;100172.19;4942011;28;20846;-75
2022/10/11 11:01:01;;;;;;;17.58;11.70;;;;;;;17.55;nan;100175.41;4942990;28;20228;-76
2022/10/11 11:03:49;;;;;;;17.15;11.18;;;;;;;17.60;nan;100166.09;4943030;28;20219;-75
2022/10/11 11:06:30;;;;;;;20.80;11.97;;;;;;;17.62;nan;100172.13;4942018;28;20313;-76
2022/10/11 11:09:12;;;;;;;17.83;11.50;;;;;;;17.65;nan;100168.38;4943357;28;20542;-75
2022/10/11 11:11:45;;;;;;;15.05;12.93;;;;;;;17.71;nan;100159.88;4942668;28;20296;-77
2022/10/11 11:14:35;;;;;;;12.00;9.10;;;;;;;17.78;nan;100169.00;4942066;28;20692;-75
2022/10/11 11:17:20;;;;;;;12.00;10.07;;;;;;;17.86;nan;100171.91;4941468;28;20667;-76
2022/10/11 11:20:20;;;;;;;13.70;10.20;;;;;;;17.92;nan;100162.56;4942945;28;20246;-76
2022/10/11 11:22:57;;;;;;;18.60;11.90;;;;;;;17.98;nan;100158.53;4943073;28;20462;-76
2022/10/11 11:25:45;;;;;;;15.23;9.37;;;;;;;18.05;nan;100151.72;4941382;28;20446;-75
2022/10/11 11:28:35;;;;;;;13.33;8.60;;;;;;;18.05;nan;100151.72;4943387;28;20958;-76
2022/10/11 11:31:09;;;;;;;16.00;10.77;;;;;;;18.05;nan;100146.41;4943081;28;20493;-76
2022/10/11 11:33:38;;;;;;;11.40;7.63;;;;;;;18.01;nan;100152.94;4942994;28;20952;-75
2022/10/11 11:36:15;;;;;;;13.83;8.47;;;;;;;17.95;nan;100142.84;4942252;28;20502;-76
2022/10/11 11:38:58;;;;;;;12.50;9.10;;;;;;;17.96;nan;100145.38;4942837;28;20542;-76
2022/10/11 11:41:38;;;;;;;11.60;7.30;;;;;;;17.95;nan;100140.19;4942539;28;20459;-76
2022/10/11 11:44:14;;;;;;;9.30;7.63;;;;;;;17.97;nan;100151.53;4943082;28;20447;-75
2022/10/11 11:46:46;;;;;;;11.87;6.57;;;;;;;18.01;nan;100142.31;4943661;28;20990;-75
2022/10/11 11:49:17;;;;;;;12.93;6.95;;;;;;;18.03;nan;100141.19;4942986;28;20458;-76
2022/10/11 11:51:44;;;;;;;12.40;7.37;;;;;;;18.09;nan;100142.50;4941996;28;20299;-75
2022/10/11 11:54:28;;;;;;;6.10;5.50;;;;;;;18.08;nan;100138.16;4956060;28;20454;-76